createdAt,value
2019-05-26T00:00:13.334Z,100138.70
2019-05-26T00:02:43.667Z,100126.19
2019-05-26T00:05:13.552Z,100124.14
2019-05-26T00:07:45.641Z,100125.72
2019-05-26T00:10:15.309Z,100126.58
2019-05-26T00:12:44.761Z,100124.08
2019-05-26T00:15:14.574Z,100115.30
2019-05-26T00:17:44.078Z,100113.41
2019-05-26T00:20:14.836Z,100114.06
2019-05-26T00:22:44.304Z,100107.98
2019-05-26T00:25:14.474Z,100104.59
2019-05-26T00:27:43.932Z,100105.94
2019-05-26T00:30:13.973Z,100093.39
2019-05-26T00:32:43.446Z,100092.95
2019-05-26T00:35:13.378Z,100088.63
2019-05-26T00:37:49.870Z,100091.51
2019-05-26T00:40:14.807Z,100088.58
2019-05-26T00:42:44.360Z,100088.03
2019-05-26T00:45:13.961Z,100078.36
2019-05-26T00:47:43.466Z,100086.72
2019-05-26T00:50:15.007Z,100081.20
2019-05-26T00:52:44.491Z,100084.38
2019-05-26T00:55:14.732Z,100083.69
2019-05-26T00:57:44.211Z,100071.63
2019-05-26T01:00:14.040Z,100071.64
2019-05-26T01:02:43.785Z,100078.41
2019-05-26T01:05:13.958Z,100079.61
2019-05-26T01:07:43.613Z,100082.95
2019-05-26T01:10:13.433Z,100081.56
2019-05-26T01:12:43.566Z,100090.46
2019-05-26T01:15:13.442Z,100092.41
2019-05-26T01:17:43.190Z,100083.98
2019-05-26T01:20:13.362Z,100083.98
2019-05-26T01:22:43.094Z,100088.02
2019-05-26T01:25:12.748Z,100092.41
2019-05-26T01:27:42.698Z,100097.29
2019-05-26T01:30:12.516Z,100089.27
2019-05-26T01:32:42.156Z,100090.98
2019-05-26T01:35:12.880Z,100090.07
2019-05-26T01:37:43.387Z,100089.48
2019-05-26T01:40:13.298Z,100090.91
2019-05-26T01:42:43.164Z,100092.04
2019-05-26T01:45:12.717Z,100098.20
2019-05-26T01:47:42.489Z,100096.25
2019-05-26T01:50:12.208Z,100095.64
2019-05-26T01:52:41.765Z,100089.59
2019-05-26T01:55:11.281Z,100087.94
2019-05-26T01:57:40.791Z,100080.70
2019-05-26T02:00:10.666Z,100078.47
2019-05-26T02:02:40.231Z,100079.59
2019-05-26T02:05:09.761Z,100084.51
2019-05-26T02:07:39.268Z,100083.27
2019-05-26T02:10:08.811Z,100075.41
2019-05-26T02:12:38.624Z,100074.77
2019-05-26T02:15:08.570Z,100079.86
2019-05-26T02:17:38.521Z,100078.41
2019-05-26T02:20:09.206Z,100071.36
2019-05-26T02:22:39.032Z,100071.30
2019-05-26T02:25:09.439Z,100075.14
2019-05-26T02:27:39.242Z,100071.99
2019-05-26T02:30:10.123Z,100076.90
2019-05-26T02:32:39.666Z,100077.77
2019-05-26T02:35:09.574Z,100079.31
2019-05-26T02:37:39.062Z,100082.08
2019-05-26T02:40:09.532Z,100084.52
2019-05-26T02:42:39.251Z,100079.78
2019-05-26T02:45:12.158Z,100082.83
2019-05-26T02:47:41.636Z,100088.77
2019-05-26T02:50:11.325Z,100087.89
2019-05-26T02:52:41.205Z,100083.37
2019-05-26T02:55:11.396Z,100079.34
2019-05-26T02:57:41.243Z,100081.17
2019-05-26T03:00:13.981Z,100076.16
2019-05-26T03:02:43.758Z,100073.83
2019-05-26T03:05:13.862Z,100076.55
2019-05-26T03:07:43.847Z,100061.99
2019-05-26T03:10:16.439Z,100066.02
2019-05-26T03:12:47.457Z,100066.80
2019-05-26T03:15:16.982Z,100065.45
2019-05-26T03:17:48.113Z,100067.15
2019-05-26T03:20:18.017Z,100063.97
2019-05-26T03:22:49.310Z,100071.73
2019-05-26T03:25:18.736Z,100062.34
2019-05-26T03:27:48.541Z,100061.92
2019-05-26T03:30:19.180Z,100067.58
2019-05-26T03:32:49.200Z,100065.88
2019-05-26T03:35:18.895Z,100067.15
2019-05-26T03:37:48.353Z,100067.64
2019-05-26T03:40:17.905Z,100065.45
2019-05-26T03:42:47.389Z,100068.74
2019-05-26T03:45:41.445Z,100068.39
2019-05-26T03:48:11.401Z,100066.41
2019-05-26T03:50:40.893Z,100069.45
2019-05-26T03:56:22.850Z,100075.77
2019-05-26T03:58:52.503Z,100078.19
2019-05-26T04:01:22.146Z,100076.75
2019-05-26T04:03:51.637Z,100081.13
2019-05-26T04:06:21.382Z,100076.78
2019-05-26T04:08:50.875Z,100075.20
2019-05-26T04:11:20.357Z,100072.52
2019-05-26T04:13:49.862Z,100070.97
2019-05-26T04:16:19.373Z,100071.46
2019-05-26T04:18:48.863Z,100064.74
2019-05-26T04:21:18.343Z,100068.42
2019-05-26T04:23:47.829Z,100065.67
2019-05-26T04:26:17.296Z,100070.41
2019-05-26T04:28:46.838Z,100064.24
2019-05-26T04:31:20.111Z,100065.64
2019-05-26T04:33:49.583Z,100058.48
2019-05-26T04:36:19.069Z,100054.32
2019-05-26T04:38:48.577Z,100052.03
2019-05-26T04:41:18.076Z,100050.44
2019-05-26T04:43:47.553Z,100053.03
2019-05-26T04:46:17.320Z,100051.55
2019-05-26T04:48:46.947Z,100047.47
2019-05-26T04:51:16.464Z,100045.73
2019-05-26T04:53:45.921Z,100042.81
2019-05-26T04:56:15.401Z,100043.72
2019-05-26T04:58:44.923Z,100037.91
2019-05-26T05:01:30.705Z,100043.57
2019-05-26T05:04:06.784Z,100044.30
2019-05-26T05:06:42.295Z,100050.95
2019-05-26T05:09:16.837Z,100050.34
2019-05-26T05:12:08.778Z,100049.25
2019-05-26T05:14:38.268Z,100049.00
2019-05-26T05:17:07.748Z,100052.62
2019-05-26T05:19:37.232Z,100058.57
2019-05-26T05:22:06.710Z,100051.19
2019-05-26T05:24:36.187Z,100053.75
2019-05-26T05:27:05.668Z,100051.58
2019-05-26T05:29:35.131Z,100046.98
2019-05-26T05:32:04.780Z,100043.86
2019-05-26T05:34:34.246Z,100038.94
2019-05-26T05:37:03.741Z,100044.29
2019-05-26T05:39:33.222Z,100042.00
2019-05-26T05:42:02.698Z,100028.88
2019-05-26T05:44:32.175Z,100027.50
2019-05-26T05:47:01.665Z,100028.83
2019-05-26T05:49:31.140Z,100031.28
2019-05-26T05:52:00.608Z,100025.97
2019-05-26T05:54:30.070Z,100032.63
2019-05-26T05:56:59.548Z,100023.16
2019-05-26T05:59:29.033Z,100022.66
2019-05-26T06:01:58.515Z,100021.16
2019-05-26T06:04:28.358Z,100022.19
2019-05-26T06:06:57.834Z,100021.07
2019-05-26T06:09:27.567Z,100021.97
2019-05-26T06:11:57.413Z,100015.36
2019-05-26T06:14:26.895Z,100018.88
2019-05-26T06:16:56.374Z,100024.67
2019-05-26T06:19:25.865Z,100020.90
2019-05-26T06:21:55.401Z,100023.91
2019-05-26T06:24:24.866Z,100028.56
2019-05-26T06:26:54.356Z,100031.87
2019-05-26T06:29:23.822Z,100027.73
2019-05-26T06:31:53.542Z,100018.28
2019-05-26T06:34:23.329Z,100013.52
2019-05-26T06:36:53.126Z,100011.44
2019-05-26T06:39:22.580Z,100006.58
2019-05-26T06:41:52.077Z,100009.31
2019-05-26T06:44:21.585Z,100006.55
2019-05-26T06:46:51.085Z,100010.26
2019-05-26T06:49:20.611Z,100004.31
2019-05-26T06:51:50.063Z,99997.82
2019-05-26T06:54:19.673Z,99999.06
2019-05-26T06:56:49.499Z,100001.12
2019-05-26T06:59:19.043Z,100000.86
2019-05-26T07:01:48.653Z,100002.52
2019-05-26T07:04:18.438Z,100003.44
2019-05-26T07:06:47.903Z,100002.61
2019-05-26T07:09:17.763Z,100000.37
2019-05-26T07:11:57.005Z,100003.21
2019-05-26T07:14:18.776Z,100004.62
2019-05-26T07:16:48.303Z,99994.14
2019-05-26T07:19:18.040Z,99993.72
2019-05-26T07:21:47.501Z,99997.62
2019-05-26T07:24:16.957Z,99997.77
2019-05-26T07:26:46.414Z,99999.33
2019-05-26T07:29:16.182Z,99998.98
2019-05-26T07:31:45.652Z,100000.33
2019-05-26T07:34:15.506Z,100007.51
2019-05-26T07:36:44.951Z,100001.42
2019-05-26T07:39:14.430Z,99993.48
2019-05-26T07:41:43.877Z,99990.60
2019-05-26T07:44:13.330Z,99981.44
2019-05-26T07:46:42.790Z,99977.80
2019-05-26T07:49:12.539Z,99976.68
2019-05-26T07:51:42.267Z,99981.67
2019-05-26T07:54:25.266Z,99978.26
2019-05-26T07:56:43.238Z,99974.91
2019-05-26T07:59:13.126Z,99968.59
2019-05-26T08:01:42.661Z,99969.43
2019-05-26T08:04:12.134Z,99968.14
2019-05-26T08:06:41.774Z,99963.05
2019-05-26T08:09:11.253Z,99965.29
2019-05-26T08:11:40.721Z,99958.38
2019-05-26T08:14:10.189Z,99956.52
2019-05-26T08:16:39.649Z,99957.86
2019-05-26T08:19:09.161Z,99948.32
2019-05-26T08:21:38.612Z,99950.89
2019-05-26T08:24:08.106Z,99949.22
2019-05-26T08:26:37.581Z,99947.00
2019-05-26T08:29:07.457Z,99939.53
2019-05-26T08:31:37.040Z,99945.47
2019-05-26T08:34:06.492Z,99950.25
2019-05-26T08:36:35.987Z,99936.49
2019-05-26T08:39:07.614Z,99933.95
2019-05-26T08:41:37.367Z,99924.55
2019-05-26T08:44:06.896Z,99923.46
2019-05-26T08:46:36.351Z,99931.81
2019-05-26T08:49:06.027Z,99928.74
2019-05-26T08:51:35.482Z,99924.98
2019-05-26T08:54:05.385Z,99923.05
2019-05-26T08:56:34.835Z,99925.39
2019-05-26T08:59:04.364Z,99920.13
2019-05-26T09:01:33.814Z,99919.84
2019-05-26T09:04:03.296Z,99920.14
2019-05-26T09:06:32.741Z,99917.09
2019-05-26T09:09:02.199Z,99915.13
2019-05-26T09:11:31.966Z,99913.44
2019-05-26T09:14:01.446Z,99903.22
2019-05-26T09:16:30.904Z,99891.73
2019-05-26T09:19:00.633Z,99902.82
2019-05-26T09:21:30.076Z,99897.48
2019-05-26T09:23:59.911Z,99891.73
2019-05-26T09:26:29.361Z,99882.67
2019-05-26T09:28:59.115Z,99881.47
2019-05-26T09:31:28.576Z,99882.64
2019-05-26T09:33:58.202Z,99881.34
2019-05-26T09:36:27.936Z,99877.09
2019-05-26T09:38:57.429Z,99886.00
2019-05-26T09:41:26.902Z,99870.98
2019-05-26T09:43:56.685Z,99876.84
2019-05-26T09:46:26.083Z,99873.83
2019-05-26T09:48:55.543Z,99865.63
2019-05-26T09:51:25.281Z,99873.30
2019-05-26T09:54:01.772Z,99868.02
2019-05-26T09:56:25.910Z,99877.67
2019-05-26T09:58:55.929Z,99871.23
2019-05-26T10:01:25.564Z,99870.45
2019-05-26T10:03:55.109Z,99860.17
2019-05-26T10:06:24.509Z,99859.16
2019-05-26T10:08:53.970Z,99851.27
2019-05-26T10:11:23.429Z,99854.30
2019-05-26T10:13:52.899Z,99848.53
2019-05-26T10:16:22.389Z,99839.11
2019-05-26T10:18:51.824Z,99844.38
2019-05-26T10:21:21.303Z,99847.98
2019-05-26T10:23:53.027Z,99843.79
2019-05-26T10:26:21.978Z,99847.25
2019-05-26T10:28:51.378Z,99841.17
2019-05-26T10:31:21.184Z,99843.51
2019-05-26T10:33:51.897Z,99841.23
2019-05-26T10:36:21.374Z,99835.28
2019-05-26T10:38:50.819Z,99833.87
2019-05-26T10:41:20.350Z,99833.55
2019-05-26T10:43:49.805Z,99837.97
2019-05-26T10:46:19.547Z,99828.86
2019-05-26T10:48:49.025Z,99837.86
2019-05-26T10:51:18.522Z,99831.83
2019-05-26T10:53:48.114Z,99827.95
2019-05-26T10:56:17.838Z,99828.92
2019-05-26T10:58:47.308Z,99823.45
2019-05-26T11:01:16.775Z,99824.41
2019-05-26T11:03:46.240Z,99813.90
2019-05-26T11:06:15.951Z,99813.31
2019-05-26T11:08:45.403Z,99811.97
2019-05-26T11:11:14.862Z,99798.33
2019-05-26T11:13:44.611Z,99793.84
2019-05-26T11:16:14.139Z,99798.20
2019-05-26T11:18:43.623Z,99796.26
2019-05-26T11:21:13.156Z,99787.95
2019-05-26T11:23:43.251Z,99792.32
2019-05-26T11:26:12.728Z,99789.33
2019-05-26T11:28:42.197Z,99784.97
2019-05-26T11:31:11.645Z,99776.14
2019-05-26T11:33:41.116Z,99778.20
2019-05-26T11:36:10.579Z,99778.81
2019-05-26T11:38:40.186Z,99768.45
2019-05-26T11:41:09.675Z,99764.11
2019-05-26T11:43:39.145Z,99766.27
2019-05-26T11:46:08.597Z,99766.70
2019-05-26T11:48:39.350Z,99760.02
2019-05-26T11:51:09.151Z,99755.05
2019-05-26T11:53:38.756Z,99747.70
2019-05-26T11:56:08.176Z,99754.36
2019-05-26T11:58:37.793Z,99737.52
2019-05-26T12:01:07.249Z,99745.81
2019-05-26T12:03:36.696Z,99742.97
2019-05-26T12:06:06.154Z,99729.42
2019-05-26T12:08:36.007Z,99729.41
2019-05-26T12:11:05.706Z,99723.97
2019-05-26T12:13:36.724Z,99722.89
2019-05-26T12:16:06.317Z,99728.78
2019-05-26T12:18:35.949Z,99723.23
2019-05-26T12:21:05.585Z,99733.28
2019-05-26T12:23:35.061Z,99725.03
2019-05-26T12:26:04.877Z,99718.79
2019-05-26T12:28:34.607Z,99720.22
2019-05-26T12:31:04.417Z,99714.32
2019-05-26T12:33:33.874Z,99710.45
2019-05-26T12:36:03.326Z,99718.13
2019-05-26T12:38:34.476Z,99708.01
2019-05-26T12:41:04.059Z,99703.27
2019-05-26T12:43:33.516Z,99698.69
2019-05-26T12:46:02.983Z,99702.44
2019-05-26T12:48:32.708Z,99703.31
2019-05-26T12:51:02.153Z,99700.43
2019-05-26T12:53:31.621Z,99706.55
2019-05-26T12:56:01.441Z,99704.06
2019-05-26T12:58:30.907Z,99698.23
2019-05-26T13:01:00.689Z,99695.22
2019-05-26T13:03:30.148Z,99696.64
2019-05-26T13:05:59.688Z,99691.38
2019-05-26T13:08:29.572Z,99683.44
2019-05-26T13:10:59.404Z,99687.42
2019-05-26T13:13:28.870Z,99677.07
2019-05-26T13:15:58.320Z,99670.95
2019-05-26T13:18:27.783Z,99657.77
2019-05-26T13:20:57.234Z,99659.64
2019-05-26T13:23:26.693Z,99660.76
2019-05-26T13:25:56.507Z,99662.69
2019-05-26T13:28:25.967Z,99665.39
2019-05-26T13:30:57.545Z,99658.81
2019-05-26T13:33:27.668Z,99653.48
2019-05-26T13:35:57.156Z,99657.42
2019-05-26T13:38:26.656Z,99655.98
2019-05-26T13:40:56.198Z,99658.65
2019-05-26T13:43:25.670Z,99656.20
2019-05-26T13:45:55.108Z,99651.70
2019-05-26T13:48:24.634Z,99655.27
2019-05-26T13:50:54.387Z,99648.42
2019-05-26T13:53:23.919Z,99643.83
2019-05-26T13:55:53.414Z,99647.97
2019-05-26T13:58:23.202Z,99647.14
2019-05-26T14:00:52.672Z,99645.80
2019-05-26T14:03:24.343Z,99637.40
2019-05-26T14:05:53.570Z,99644.52
2019-05-26T14:08:23.583Z,99642.56
2019-05-26T14:10:53.500Z,99640.33
2019-05-26T14:13:22.969Z,99641.98
2019-05-26T14:15:54.614Z,99638.85
2019-05-26T14:18:24.704Z,99639.91
2019-05-26T14:20:54.152Z,99627.08
2019-05-26T14:23:23.610Z,99639.29
2019-05-26T14:25:53.130Z,99634.96
2019-05-26T14:28:22.655Z,99635.27
2019-05-26T14:30:52.596Z,99627.74
2019-05-26T14:33:22.077Z,99623.87
2019-05-26T14:35:51.698Z,99628.09
2019-05-26T14:38:21.161Z,99621.53
2019-05-26T14:40:50.911Z,99623.20
2019-05-26T14:43:20.438Z,99625.09
2019-05-26T14:45:53.667Z,99608.78
2019-05-26T14:48:21.031Z,99622.00
2019-05-26T14:50:50.502Z,99616.72
2019-05-26T14:53:19.978Z,99611.28
2019-05-26T14:55:49.436Z,99608.44
2019-05-26T14:58:18.945Z,99620.39
2019-05-26T15:00:48.498Z,99604.22
2019-05-26T15:03:18.013Z,99605.37
2019-05-26T15:05:47.941Z,99604.95
2019-05-26T15:08:17.394Z,99596.41
2019-05-26T15:10:46.837Z,99601.91
2019-05-26T15:13:16.295Z,99601.91
2019-05-26T15:15:45.997Z,99598.86
2019-05-26T15:18:15.449Z,99595.72
2019-05-26T15:20:44.924Z,99597.24
2019-05-26T15:23:14.509Z,99600.26
2019-05-26T15:25:44.017Z,99595.31
2019-05-26T15:28:13.474Z,99596.95
2019-05-26T15:30:43.687Z,99598.05
2019-05-26T15:33:14.392Z,99600.56
2019-05-26T15:35:45.081Z,99595.19
2019-05-26T15:38:15.017Z,99600.95
2019-05-26T15:40:44.476Z,99593.09
2019-05-26T15:43:13.950Z,99589.94
2019-05-26T15:45:43.415Z,99583.66
2019-05-26T15:48:12.894Z,99587.22
2019-05-26T15:50:42.423Z,99584.25
2019-05-26T15:53:11.976Z,99587.68
2019-05-26T15:55:42.697Z,99585.45
2019-05-26T15:58:12.492Z,99581.56
2019-05-26T16:00:42.441Z,99578.64
2019-05-26T16:03:12.142Z,99574.13
2019-05-26T16:05:41.873Z,99569.41
2019-05-26T16:08:11.312Z,99577.25
2019-05-26T16:10:40.787Z,99575.73
2019-05-26T16:13:10.237Z,99580.14
2019-05-26T16:15:39.700Z,99570.36
2019-05-26T16:18:09.218Z,99575.52
2019-05-26T16:20:38.687Z,99573.30
2019-05-26T16:23:09.135Z,99577.19
2019-05-26T16:25:40.603Z,99570.71
2019-05-26T16:28:10.051Z,99574.84
2019-05-26T16:30:41.301Z,99573.98
2019-05-26T16:33:10.819Z,99565.72
2019-05-26T16:35:40.329Z,99568.16
2019-05-26T16:38:09.766Z,99564.20
2019-05-26T16:40:39.312Z,99564.73
2019-05-26T16:43:08.767Z,99563.42
2019-05-26T16:45:38.247Z,99562.48
2019-05-26T16:48:07.690Z,99558.86
2019-05-26T16:50:37.157Z,99562.95
2019-05-26T16:53:07.013Z,99559.41
2019-05-26T16:55:36.447Z,99556.66
2019-05-26T16:58:06.971Z,99559.86
2019-05-26T17:00:36.774Z,99556.48
2019-05-26T17:03:06.883Z,99557.00
2019-05-26T17:05:36.950Z,99560.30
2019-05-26T17:08:06.413Z,99559.80
2019-05-26T17:10:35.952Z,99553.92
2019-05-26T17:13:05.389Z,99557.14
2019-05-26T17:15:35.813Z,99563.12
2019-05-26T17:18:05.911Z,99565.53
2019-05-26T17:20:35.418Z,99563.57
2019-05-26T17:23:04.982Z,99561.66
2019-05-26T17:25:34.440Z,99561.94
2019-05-26T17:28:03.897Z,99561.70
2019-05-26T17:30:33.600Z,99556.79
2019-05-26T17:33:03.328Z,99565.16
2019-05-26T17:35:32.781Z,99555.11
2019-05-26T17:38:02.326Z,99558.31
2019-05-26T17:40:31.784Z,99558.40
2019-05-26T17:43:01.226Z,99549.88
2019-05-26T17:45:30.690Z,99556.77
2019-05-26T17:48:00.417Z,99555.60
2019-05-26T17:50:29.881Z,99559.55
2019-05-26T17:52:59.418Z,99555.14
2019-05-26T17:55:28.946Z,99543.94
2019-05-26T17:57:58.428Z,99546.83
2019-05-26T18:00:28.214Z,99549.02
2019-05-26T18:02:57.825Z,99552.94
2019-05-26T18:05:27.457Z,99548.36
2019-05-26T18:07:56.890Z,99547.86
2019-05-26T18:10:26.686Z,99541.31
2019-05-26T18:12:56.221Z,99548.31
2019-05-26T18:15:25.699Z,99545.12
2019-05-26T18:17:55.213Z,99544.89
2019-05-26T18:20:24.731Z,99544.11
2019-05-26T18:22:54.399Z,99540.67
2019-05-26T18:25:24.136Z,99544.45
2019-05-26T18:27:53.632Z,99541.66
2019-05-26T18:30:23.561Z,99543.05
2019-05-26T18:32:53.109Z,99537.27
2019-05-26T18:35:22.553Z,99535.84
2019-05-26T18:37:53.265Z,99542.86
2019-05-26T18:40:22.739Z,99541.39
2019-05-26T18:42:52.273Z,99540.48
2019-05-26T18:45:21.988Z,99543.64
2019-05-26T18:48:02.411Z,99547.96
2019-05-26T18:50:22.590Z,99548.74
2019-05-26T18:52:52.075Z,99546.45
2019-05-26T18:55:21.527Z,99553.71
2019-05-26T18:57:51.270Z,99551.05
2019-05-26T19:00:22.127Z,99549.52
2019-05-26T19:02:51.806Z,99552.27
2019-05-26T19:05:32.815Z,99550.85
2019-05-26T19:07:52.645Z,99544.25
2019-05-26T19:10:22.106Z,99547.95
2019-05-26T19:12:51.596Z,99558.31
2019-05-26T19:15:21.148Z,99556.94
2019-05-26T19:17:50.917Z,99551.57
2019-05-26T19:20:20.359Z,99555.17
2019-05-26T19:22:53.163Z,99555.94
2019-05-26T19:25:21.148Z,99558.94
2019-05-26T19:27:50.619Z,99558.74
2019-05-26T19:30:20.556Z,99559.94
2019-05-26T19:32:51.998Z,99562.14
2019-05-26T19:35:21.420Z,99563.11
2019-05-26T19:37:50.909Z,99561.85
2019-05-26T19:40:20.531Z,99552.77
2019-05-26T19:42:49.992Z,99556.12
2019-05-26T19:45:19.457Z,99553.88
2019-05-26T19:47:48.927Z,99560.46
2019-05-26T19:50:18.396Z,99564.36
2019-05-26T19:52:49.923Z,99560.04
2019-05-26T19:55:19.087Z,99558.60
2019-05-26T19:57:48.839Z,99551.68
2019-05-26T20:00:18.781Z,99553.86
2019-05-26T20:02:48.334Z,99556.80
2019-05-26T20:05:17.972Z,99551.77
2019-05-26T20:07:47.445Z,99553.02
2019-05-26T20:10:17.061Z,99549.77
2019-05-26T20:12:46.546Z,99539.94
2019-05-26T20:15:16.431Z,99549.84
2019-05-26T20:17:46.253Z,99548.86
2019-05-26T20:20:15.930Z,99546.03
2019-05-26T20:22:45.810Z,99555.62
2019-05-26T20:25:15.442Z,99551.95
2019-05-26T20:27:44.923Z,99551.41
2019-05-26T20:30:14.607Z,99550.53
2019-05-26T20:32:44.584Z,99546.22
2019-05-26T20:35:15.111Z,99547.98
2019-05-26T20:37:44.734Z,99548.26
2019-05-26T20:40:14.626Z,99549.73
2019-05-26T20:42:44.091Z,99551.05
2019-05-26T20:45:14.203Z,99550.48
2019-05-26T20:47:43.679Z,99555.38
2019-05-26T20:50:28.124Z,99549.91
2019-05-26T20:52:44.889Z,99548.70
2019-05-26T20:55:14.686Z,99556.17
2019-05-26T20:57:44.158Z,99550.31
2019-05-26T21:00:15.053Z,99552.11
2019-05-26T21:02:44.909Z,99554.30
2019-05-26T21:05:16.476Z,99554.38
2019-05-26T21:07:45.952Z,99553.36
2019-05-26T21:10:15.916Z,99547.36
2019-05-26T21:12:45.424Z,99544.11
2019-05-26T21:15:15.633Z,99549.98
2019-05-26T21:17:45.099Z,99548.89
2019-05-26T21:20:16.007Z,99554.28
2019-05-26T21:22:45.440Z,99556.38
2019-05-26T21:25:15.637Z,99547.41
2019-05-26T21:27:45.117Z,99552.96
2019-05-26T21:30:15.330Z,99545.95
2019-05-26T21:32:44.792Z,99549.54
2019-05-26T21:35:14.854Z,99553.02
2019-05-26T21:37:44.310Z,99550.44
2019-05-26T21:40:15.098Z,99549.80
2019-05-26T21:42:44.567Z,99538.69
2019-05-26T21:45:15.405Z,99537.45
2019-05-26T21:47:45.546Z,99538.12
2019-05-26T21:50:16.187Z,99535.26
2019-05-26T21:53:05.326Z,99533.46
2019-05-26T21:55:38.812Z,99535.53
2019-05-26T21:58:08.362Z,99539.13
2019-05-26T22:00:39.501Z,99529.84
2019-05-26T22:03:09.126Z,99528.56
2019-05-26T22:05:38.580Z,99537.73
2019-05-26T22:08:08.026Z,99531.81
2019-05-26T22:10:37.871Z,99537.61
2019-05-26T22:13:07.313Z,99531.50
2019-05-26T22:15:36.846Z,99533.30
2019-05-26T22:18:06.288Z,99528.80
2019-05-26T22:20:36.155Z,99533.05
2019-05-26T22:23:05.607Z,99526.09
2019-05-26T22:25:35.060Z,99525.62
2019-05-26T22:28:04.496Z,99521.94
2019-05-26T22:30:33.970Z,99511.64
2019-05-26T22:33:03.407Z,99511.30
2019-05-26T22:35:33.107Z,99512.54
2019-05-26T22:38:02.567Z,99504.26
2019-05-26T22:40:32.064Z,99506.28
2019-05-26T22:43:01.513Z,99501.56
2019-05-26T22:45:30.978Z,99501.05
2019-05-26T22:48:00.431Z,99503.06
2019-05-26T22:50:29.903Z,99494.20
2019-05-26T22:52:59.476Z,99500.09
2019-05-26T22:55:28.981Z,99491.04
2019-05-26T22:57:58.494Z,99494.73
2019-05-26T23:00:28.012Z,99506.48
2019-05-26T23:02:57.519Z,99497.44
2019-05-26T23:05:26.929Z,99505.58
2019-05-26T23:07:56.401Z,99493.10
2019-05-26T23:10:26.298Z,99500.78
2019-05-26T23:12:55.753Z,99499.58
2019-05-26T23:15:25.624Z,99496.54
2019-05-26T23:17:55.072Z,99494.53
2019-05-26T23:20:24.553Z,99496.05
2019-05-26T23:22:53.990Z,99496.34
2019-05-26T23:27:51.775Z,99495.44
2019-05-26T23:30:21.404Z,99498.25
2019-05-26T23:32:50.858Z,99496.38
2019-05-26T23:35:20.347Z,99492.77
2019-05-26T23:37:49.796Z,99488.64
2019-05-26T23:40:19.509Z,99483.23
2019-05-26T23:42:48.969Z,99475.45
2019-05-26T23:45:18.453Z,99482.55
2019-05-26T23:47:47.918Z,99480.27
2019-05-26T23:50:17.374Z,99479.30
2019-05-26T23:52:46.843Z,99479.77
2019-05-26T23:55:16.302Z,99485.95
2019-05-26T23:57:45.755Z,99487.67
